createdAt,value
2019-03-13T00:00:49.700Z,47.80
2019-03-13T00:03:19.179Z,47.20
2019-03-13T00:05:48.598Z,46.00
2019-03-13T00:08:18.039Z,45.00
2019-03-13T00:10:47.528Z,44.90
2019-03-13T00:13:16.897Z,44.60
2019-03-13T00:15:49.475Z,43.70
2019-03-13T00:18:17.374Z,43.40
2019-03-13T00:20:46.828Z,43.10
2019-03-13T00:23:16.163Z,42.90
2019-03-13T00:25:45.547Z,42.80
2019-03-13T00:28:15.292Z,42.20
2019-03-13T00:30:44.675Z,42.00
2019-03-13T00:33:14.059Z,42.00
2019-03-13T00:35:43.456Z,41.90
2019-03-13T00:38:12.830Z,41.60
2019-03-13T00:40:42.599Z,41.70
2019-03-13T00:43:11.967Z,41.50
2019-03-13T00:45:41.291Z,41.50
2019-03-13T00:48:10.701Z,41.40
2019-03-13T00:50:40.071Z,41.40
2019-03-13T00:53:09.496Z,41.40
2019-03-13T00:55:38.875Z,41.40
2019-03-13T00:58:08.255Z,41.40
2019-03-13T01:00:59.652Z,41.40
2019-03-13T01:03:45.452Z,41.60
2019-03-13T01:06:19.193Z,41.90
2019-03-13T01:08:48.615Z,41.90
2019-03-13T01:11:18.012Z,41.90
2019-03-13T01:13:47.451Z,42.10
2019-03-13T01:16:16.886Z,42.30
2019-03-13T01:18:46.255Z,42.50
2019-03-13T01:21:15.928Z,42.70
2019-03-13T01:23:45.271Z,43.00
2019-03-13T01:26:14.644Z,43.20
2019-03-13T01:28:44.031Z,43.50
2019-03-13T01:31:35.167Z,43.80
2019-03-13T01:34:26.736Z,44.10
2019-03-13T01:36:56.128Z,44.40
2019-03-13T01:39:25.530Z,44.80
2019-03-13T01:41:54.908Z,44.80
2019-03-13T01:44:24.320Z,45.20
2019-03-13T01:46:53.730Z,45.60
2019-03-13T01:49:23.134Z,45.70
2019-03-13T01:51:52.527Z,46.00
2019-03-13T01:54:21.895Z,46.60
2019-03-13T01:56:51.214Z,47.10
2019-03-13T01:59:20.591Z,47.50
2019-03-13T02:01:50.000Z,47.90
2019-03-13T02:04:19.376Z,48.30
2019-03-13T02:06:48.775Z,49.10
2019-03-13T02:09:18.196Z,50.10
2019-03-13T02:11:47.564Z,51.20
2019-03-13T02:14:16.956Z,52.10
2019-03-13T02:16:46.356Z,53.20
2019-03-13T02:19:15.723Z,54.80
2019-03-13T02:21:45.099Z,56.30
2019-03-13T02:24:14.471Z,57.50
2019-03-13T02:26:44.071Z,58.10
2019-03-13T02:29:13.451Z,59.40
2019-03-13T02:31:42.849Z,60.70
2019-03-13T02:34:12.220Z,61.30
2019-03-13T02:36:41.611Z,62.90
2019-03-13T02:39:11.047Z,63.90
2019-03-13T02:41:40.453Z,65.10
2019-03-13T02:44:09.833Z,66.50
2019-03-13T02:46:39.512Z,66.50
2019-03-13T02:49:08.925Z,67.00
2019-03-13T02:51:38.458Z,67.10
2019-03-13T02:54:07.831Z,67.60
2019-03-13T02:56:37.200Z,67.60
2019-03-13T02:59:06.604Z,67.90
2019-03-13T03:02:03.924Z,67.60
2019-03-13T03:04:33.337Z,67.50
2019-03-13T03:07:02.719Z,67.70
2019-03-13T03:09:32.180Z,66.50
2019-03-13T03:12:01.537Z,64.80
2019-03-13T03:14:31.034Z,64.80
2019-03-13T03:17:00.337Z,64.60
2019-03-13T03:19:29.700Z,64.60
2019-03-13T03:21:59.100Z,64.70
2019-03-13T03:24:28.482Z,64.70
2019-03-13T03:26:57.889Z,65.00
2019-03-13T03:29:27.252Z,64.70
2019-03-13T03:31:56.649Z,64.20
2019-03-13T03:34:26.079Z,64.20
2019-03-13T03:36:55.454Z,63.90
2019-03-13T03:39:24.846Z,64.10
2019-03-13T03:41:54.270Z,64.40
2019-03-13T03:44:23.636Z,64.50
2019-03-13T03:46:53.034Z,64.80
2019-03-13T03:49:22.475Z,65.00
2019-03-13T03:51:51.831Z,65.20
2019-03-13T03:54:21.213Z,65.20
2019-03-13T03:56:50.640Z,65.40
2019-03-13T03:59:19.994Z,65.40
2019-03-13T04:01:49.396Z,65.50
2019-03-13T04:04:18.771Z,65.70
2019-03-13T04:06:48.477Z,65.80
2019-03-13T04:09:17.913Z,66.00
2019-03-13T04:11:47.342Z,66.20
2019-03-13T04:14:16.744Z,66.50
2019-03-13T04:16:46.131Z,67.20
2019-03-13T04:19:16.336Z,66.40
2019-03-13T04:21:45.728Z,66.60
2019-03-13T04:24:15.128Z,66.80
2019-03-13T04:26:46.476Z,66.90
2019-03-13T04:29:15.919Z,67.10
2019-03-13T04:31:45.297Z,67.30
2019-03-13T04:34:14.712Z,67.20
2019-03-13T04:36:44.142Z,67.10
2019-03-13T04:39:13.494Z,67.20
2019-03-13T04:41:42.907Z,67.50
2019-03-13T04:44:12.311Z,68.00
2019-03-13T04:46:41.687Z,68.70
2019-03-13T04:49:11.197Z,69.30
2019-03-13T04:51:40.479Z,69.60
2019-03-13T04:54:10.148Z,69.80
2019-03-13T04:56:39.519Z,70.00
2019-03-13T04:59:08.931Z,70.40
2019-03-13T05:01:38.308Z,70.70
2019-03-13T05:04:07.686Z,70.70
2019-03-13T05:06:37.100Z,70.80
2019-03-13T05:09:32.022Z,70.90
2019-03-13T05:12:01.441Z,70.80
2019-03-13T05:14:32.695Z,70.60
2019-03-13T05:17:01.858Z,70.60
2019-03-13T05:19:31.167Z,70.50
2019-03-13T05:22:00.901Z,70.40
2019-03-13T05:24:30.271Z,70.50
2019-03-13T05:26:59.636Z,70.30
2019-03-13T05:29:29.039Z,70.60
2019-03-13T05:31:58.410Z,70.40
2019-03-13T05:34:27.757Z,70.50
2019-03-13T05:36:57.292Z,70.50
2019-03-13T05:39:26.693Z,70.30
2019-03-13T05:41:56.059Z,70.40
2019-03-13T05:44:25.504Z,70.50
2019-03-13T05:46:54.851Z,70.50
2019-03-13T05:49:24.244Z,70.70
2019-03-13T05:51:53.647Z,70.90
2019-03-13T05:54:23.013Z,71.10
2019-03-13T05:56:52.447Z,71.30
2019-03-13T05:59:21.833Z,71.70
2019-03-13T06:01:51.236Z,71.60
2019-03-13T06:04:20.628Z,71.80
2019-03-13T06:06:50.039Z,71.70
2019-03-13T06:09:19.462Z,71.70
2019-03-13T06:11:48.889Z,71.30
2019-03-13T06:14:18.296Z,71.30
2019-03-13T06:16:47.696Z,71.10
2019-03-13T06:19:17.091Z,70.80
2019-03-13T06:21:46.465Z,70.60
2019-03-13T06:24:15.881Z,70.50
2019-03-13T06:26:45.255Z,70.30
2019-03-13T06:29:14.671Z,70.40
2019-03-13T06:31:44.061Z,70.50
2019-03-13T06:34:13.680Z,70.60
2019-03-13T06:36:43.077Z,70.80
2019-03-13T06:39:12.452Z,70.80
2019-03-13T06:41:41.876Z,70.70
2019-03-13T06:44:11.511Z,70.40
2019-03-13T06:46:40.928Z,70.00
2019-03-13T06:49:10.315Z,69.70
2019-03-13T06:51:39.756Z,70.70
2019-03-13T06:54:09.127Z,72.50
2019-03-13T06:56:38.504Z,76.00
2019-03-13T06:59:15.888Z,77.80
2019-03-13T07:02:16.371Z,78.20
2019-03-13T07:05:00.379Z,79.10
2019-03-13T07:07:51.886Z,78.60
2019-03-13T07:10:27.212Z,78.20
2019-03-13T07:13:17.965Z,78.20
2019-03-13T07:16:06.286Z,78.40
2019-03-13T07:18:57.671Z,78.20
2019-03-13T07:21:48.769Z,77.80
2019-03-13T07:24:40.191Z,77.60
2019-03-13T07:27:46.493Z,78.30
2019-03-13T07:30:37.459Z,78.40
2019-03-13T07:33:24.266Z,78.60
2019-03-13T07:36:12.616Z,78.90
2019-03-13T07:39:09.979Z,78.80
2019-03-13T07:41:56.699Z,78.30
2019-03-13T07:44:33.715Z,77.80
2019-03-13T07:47:13.182Z,77.40
2019-03-13T07:50:06.504Z,77.10
2019-03-13T07:52:43.561Z,76.80
2019-03-13T07:55:43.819Z,76.50
2019-03-13T07:58:38.039Z,75.60
2019-03-13T08:01:35.223Z,74.30
2019-03-13T08:04:10.500Z,73.30
2019-03-13T08:06:55.927Z,72.50
2019-03-13T08:09:42.855Z,71.70
2019-03-13T08:12:46.131Z,71.00
2019-03-13T08:15:43.412Z,71.10
2019-03-13T08:18:19.237Z,70.80
2019-03-13T08:21:07.596Z,70.70
2019-03-13T08:24:00.714Z,69.00
2019-03-13T08:26:43.000Z,69.30
2019-03-13T08:29:43.171Z,68.90
2019-03-13T08:32:21.513Z,68.90
2019-03-13T08:35:03.690Z,67.70
2019-03-13T08:37:41.897Z,68.00
2019-03-13T08:40:31.052Z,68.40
2019-03-13T08:43:09.648Z,67.90
2019-03-13T08:45:52.476Z,67.80
2019-03-13T08:48:56.033Z,68.00
2019-03-13T08:51:44.391Z,67.40
2019-03-13T08:54:47.909Z,67.70
2019-03-13T08:57:41.757Z,66.90
2019-03-13T09:00:34.173Z,65.60
2019-03-13T09:03:12.621Z,64.90
2019-03-13T09:06:02.040Z,64.00
2019-03-13T09:08:49.014Z,62.70
2019-03-13T09:11:44.060Z,61.70
2019-03-13T09:14:41.177Z,60.90
2019-03-13T09:17:35.552Z,60.60
2019-03-13T09:20:27.433Z,60.70
2019-03-13T09:23:11.850Z,60.90
2019-03-13T09:25:58.952Z,60.60
2019-03-13T09:28:56.815Z,59.30
2019-03-13T09:31:36.816Z,59.00
2019-03-13T09:34:20.610Z,58.00
2019-03-13T09:37:18.275Z,58.00
2019-03-13T09:40:02.008Z,57.30
2019-03-13T09:42:50.734Z,57.30
2019-03-13T09:45:39.332Z,56.40
2019-03-13T09:48:35.631Z,55.70
2019-03-13T09:51:22.539Z,54.90
2019-03-13T09:54:31.128Z,54.30
2019-03-13T09:57:34.536Z,53.50
2019-03-13T10:00:35.452Z,54.20
2019-03-13T10:03:19.442Z,54.00
2019-03-13T10:06:10.605Z,53.60
2019-03-13T10:09:14.117Z,54.10
2019-03-13T10:12:11.060Z,53.30
2019-03-13T10:15:03.714Z,53.50
2019-03-13T10:18:01.155Z,53.90
2019-03-13T10:20:48.098Z,54.30
2019-03-13T10:23:30.485Z,54.30
2019-03-13T10:26:18.924Z,53.90
2019-03-13T10:28:53.832Z,54.40
2019-03-13T10:31:46.561Z,54.80
2019-03-13T10:34:25.063Z,55.10
2019-03-13T10:37:03.863Z,55.50
2019-03-13T10:39:49.227Z,55.90
2019-03-13T10:42:43.315Z,55.90
2019-03-13T10:45:24.676Z,55.80
2019-03-13T10:48:13.008Z,55.50
2019-03-13T10:51:00.506Z,54.90
2019-03-13T10:53:48.703Z,54.70
2019-03-13T10:56:29.847Z,54.80
2019-03-13T10:59:16.594Z,54.50
2019-03-13T11:02:10.763Z,54.30
2019-03-13T11:05:08.116Z,54.60
2019-03-13T11:07:54.032Z,55.00
2019-03-13T11:10:35.428Z,54.50
2019-03-13T11:13:23.832Z,54.00
2019-03-13T11:16:21.345Z,53.70
2019-03-13T11:18:56.880Z,53.50
2019-03-13T11:21:39.159Z,53.00
2019-03-13T11:24:17.720Z,52.20
2019-03-13T11:27:06.035Z,51.70
2019-03-13T11:30:00.398Z,51.50
2019-03-13T11:32:40.540Z,50.80
2019-03-13T11:35:31.913Z,50.10
2019-03-13T11:38:38.383Z,49.40
2019-03-13T11:41:19.279Z,48.90
2019-03-13T11:44:05.615Z,48.90
2019-03-13T11:46:45.584Z,48.20
2019-03-13T11:49:42.782Z,46.60
2019-03-13T11:52:40.044Z,46.70
2019-03-13T11:55:28.558Z,46.50
2019-03-13T11:58:09.298Z,45.40
2019-03-13T12:00:57.635Z,45.50
2019-03-13T12:03:45.972Z,45.50
2019-03-13T12:06:32.747Z,45.80
2019-03-13T12:09:26.876Z,45.50
2019-03-13T12:12:18.028Z,45.40
2019-03-13T12:15:18.307Z,45.40
2019-03-13T12:18:09.644Z,45.40
2019-03-13T12:21:01.428Z,45.80
2019-03-13T12:23:55.551Z,45.70
2019-03-13T12:26:40.015Z,46.20
2019-03-13T12:29:31.120Z,46.20
2019-03-13T12:32:26.035Z,45.20
2019-03-13T12:35:04.444Z,45.00
2019-03-13T12:37:44.507Z,43.60
2019-03-13T12:40:35.877Z,44.70
2019-03-13T12:43:21.901Z,44.00
2019-03-13T12:46:13.496Z,44.00
2019-03-13T12:48:53.131Z,45.00
2019-03-13T12:51:43.357Z,45.00
2019-03-13T12:54:19.039Z,44.80
2019-03-13T12:57:07.344Z,44.80
2019-03-13T12:59:58.483Z,44.90
2019-03-13T13:02:49.834Z,45.50
2019-03-13T13:05:40.967Z,44.70
2019-03-13T13:08:27.635Z,44.50
2019-03-13T13:11:07.414Z,45.10
2019-03-13T13:13:48.248Z,45.30
2019-03-13T13:16:25.722Z,44.60
2019-03-13T13:18:55.092Z,44.40
2019-03-13T13:21:24.847Z,45.80
2019-03-13T13:23:54.211Z,48.70
2019-03-13T13:26:23.588Z,50.50
2019-03-13T13:28:52.999Z,51.30
2019-03-13T13:31:22.408Z,52.10
2019-03-13T13:33:51.898Z,51.70
2019-03-13T13:36:21.199Z,50.90
2019-03-13T13:38:50.516Z,50.90
2019-03-13T13:41:19.902Z,49.50
2019-03-13T13:43:49.202Z,49.40
2019-03-13T13:46:24.408Z,48.40
2019-03-13T13:48:53.792Z,47.90
2019-03-13T13:51:23.215Z,47.80
2019-03-13T13:53:55.594Z,47.50
2019-03-13T13:56:23.911Z,46.40
2019-03-13T13:58:53.299Z,46.10
2019-03-13T14:01:22.677Z,45.50
2019-03-13T14:03:52.083Z,44.90
2019-03-13T14:06:21.452Z,44.50
2019-03-13T14:08:50.865Z,44.50
2019-03-13T14:11:20.259Z,44.50
2019-03-13T14:13:49.720Z,44.00
2019-03-13T14:16:19.156Z,44.00
2019-03-13T14:18:48.557Z,44.60
2019-03-13T14:21:17.966Z,45.10
2019-03-13T14:23:47.342Z,45.90
2019-03-13T14:26:16.755Z,46.10
2019-03-13T14:28:46.130Z,46.50
2019-03-13T14:31:15.441Z,46.60
2019-03-13T14:33:44.859Z,47.00
2019-03-13T14:36:14.223Z,47.50
2019-03-13T14:38:43.637Z,47.80
2019-03-13T14:41:13.019Z,47.70
2019-03-13T14:43:42.507Z,47.20
2019-03-13T14:46:11.888Z,46.80
2019-03-13T14:48:41.253Z,46.40
2019-03-13T14:51:10.651Z,46.70
2019-03-13T14:53:40.024Z,47.00
2019-03-13T14:56:09.464Z,47.40
2019-03-13T14:58:38.855Z,47.60
2019-03-13T15:01:08.340Z,47.70
2019-03-13T15:03:37.712Z,47.50
2019-03-13T15:06:07.111Z,46.60
2019-03-13T15:08:36.503Z,46.40
2019-03-13T15:11:05.883Z,46.50
2019-03-13T15:13:35.284Z,46.70
2019-03-13T15:16:04.719Z,47.30
2019-03-13T15:18:34.128Z,47.30
2019-03-13T15:21:03.449Z,47.60
2019-03-13T15:23:32.817Z,47.70
2019-03-13T15:26:02.237Z,47.90
2019-03-13T15:28:31.619Z,48.10
2019-03-13T15:31:01.029Z,48.60
2019-03-13T15:33:30.399Z,49.00
2019-03-13T15:35:59.739Z,49.30
2019-03-13T15:38:29.123Z,50.00
2019-03-13T15:40:59.173Z,50.40
2019-03-13T15:43:28.556Z,51.20
2019-03-13T15:45:57.961Z,51.40
2019-03-13T15:48:27.374Z,52.20
2019-03-13T15:50:56.736Z,53.00
2019-03-13T15:53:26.132Z,54.60
2019-03-13T15:55:55.697Z,55.50
2019-03-13T15:58:25.190Z,57.60
2019-03-13T16:00:54.580Z,60.30
2019-03-13T16:03:23.964Z,63.00
2019-03-13T16:05:53.362Z,64.30
2019-03-13T16:08:22.745Z,64.40
2019-03-13T16:10:52.170Z,64.80
2019-03-13T16:13:21.548Z,65.60
2019-03-13T16:15:51.008Z,65.80
2019-03-13T16:18:20.410Z,66.00
2019-03-13T16:20:49.783Z,66.50
2019-03-13T16:23:19.197Z,67.10
2019-03-13T16:25:48.571Z,67.60
2019-03-13T16:28:17.999Z,67.40
2019-03-13T16:30:47.675Z,67.10
2019-03-13T16:33:17.092Z,67.60
2019-03-13T16:35:46.465Z,67.60
2019-03-13T16:38:16.226Z,67.80
2019-03-13T16:40:45.538Z,67.80
2019-03-13T16:43:14.903Z,67.90
2019-03-13T16:45:44.308Z,68.10
2019-03-13T16:48:13.687Z,68.20
2019-03-13T16:50:43.099Z,68.60
2019-03-13T16:53:12.545Z,69.20
2019-03-13T16:55:41.881Z,69.90
2019-03-13T16:58:11.311Z,69.90
2019-03-13T17:00:40.675Z,70.10
2019-03-13T17:03:09.994Z,70.50
2019-03-13T17:05:39.356Z,70.50
2019-03-13T17:08:08.773Z,70.60
2019-03-13T17:10:38.144Z,70.40
2019-03-13T17:13:07.531Z,70.50
2019-03-13T17:15:36.932Z,70.40
2019-03-13T17:18:06.367Z,70.20
2019-03-13T17:20:35.838Z,70.40
2019-03-13T17:23:05.317Z,70.40
2019-03-13T17:25:34.724Z,70.40
2019-03-13T17:28:04.211Z,70.40
2019-03-13T17:30:33.811Z,70.20
2019-03-13T17:33:03.679Z,70.20
2019-03-13T17:35:33.054Z,70.20
2019-03-13T17:38:02.399Z,70.30
2019-03-13T17:40:31.829Z,70.20
2019-03-13T17:43:01.194Z,70.20
2019-03-13T17:45:30.618Z,70.20
2019-03-13T17:48:00.014Z,70.40
2019-03-13T17:50:29.692Z,70.40
2019-03-13T17:52:59.071Z,70.50
2019-03-13T17:55:29.285Z,70.70
2019-03-13T17:57:58.730Z,70.50
2019-03-13T18:00:31.143Z,70.50
2019-03-13T18:03:00.543Z,70.60
2019-03-13T18:05:29.933Z,70.60
2019-03-13T18:07:59.336Z,70.80
2019-03-13T18:10:28.719Z,70.90
2019-03-13T18:12:58.097Z,70.90
2019-03-13T18:15:27.471Z,71.20
2019-03-13T18:17:56.935Z,71.20
2019-03-13T18:20:26.320Z,71.40
2019-03-13T18:22:55.797Z,71.30
2019-03-13T18:25:25.192Z,71.30
2019-03-13T18:27:54.570Z,71.30
2019-03-13T18:30:24.223Z,71.10
2019-03-13T18:32:53.856Z,70.80
2019-03-13T18:35:23.440Z,70.40
2019-03-13T18:37:52.817Z,69.90
2019-03-13T18:40:22.231Z,69.70
2019-03-13T18:42:51.634Z,69.40
2019-03-13T18:45:22.928Z,69.10
2019-03-13T18:47:52.402Z,69.10
2019-03-13T18:50:21.867Z,69.20
2019-03-13T18:52:51.273Z,69.30
2019-03-13T18:55:21.427Z,69.30
2019-03-13T18:57:51.006Z,69.30
2019-03-13T19:00:22.563Z,69.40
2019-03-13T19:02:52.036Z,69.30
2019-03-13T19:05:21.445Z,69.30
2019-03-13T19:07:50.906Z,69.20
2019-03-13T19:10:20.556Z,69.30
2019-03-13T19:12:49.927Z,69.40
2019-03-13T19:15:20.303Z,69.60
2019-03-13T19:17:50.600Z,69.70
2019-03-13T19:20:21.013Z,69.60
2019-03-13T19:22:50.514Z,69.60
2019-03-13T19:25:19.896Z,69.60
2019-03-13T19:27:49.326Z,69.70
2019-03-13T19:30:21.886Z,69.60
2019-03-13T19:32:51.300Z,69.60
2019-03-13T19:35:20.977Z,69.70
2019-03-13T19:37:50.309Z,69.70
2019-03-13T19:40:19.789Z,69.80
2019-03-13T19:42:49.164Z,69.90
2019-03-13T19:45:24.272Z,70.30
2019-03-13T19:47:53.651Z,70.50
2019-03-13T19:50:23.166Z,70.40
2019-03-13T19:52:52.524Z,70.60
2019-03-13T19:55:21.891Z,70.60
2019-03-13T19:57:51.288Z,70.60
2019-03-13T20:00:22.578Z,70.40
2019-03-13T20:02:59.867Z,70.50
2019-03-13T20:05:23.110Z,70.40
2019-03-13T20:07:52.698Z,70.40
2019-03-13T20:10:23.405Z,70.40
2019-03-13T20:12:52.920Z,70.20
2019-03-13T20:15:23.429Z,70.40
2019-03-13T20:17:52.860Z,70.40
2019-03-13T20:20:22.796Z,70.50
2019-03-13T20:22:56.721Z,70.40
2019-03-13T20:25:24.625Z,70.40
2019-03-13T20:27:54.790Z,70.50
2019-03-13T20:30:24.523Z,70.60
2019-03-13T20:32:53.915Z,70.80
2019-03-13T20:35:23.358Z,70.80
2019-03-13T20:37:52.827Z,71.30
2019-03-13T20:40:22.507Z,71.30
2019-03-13T20:42:51.923Z,71.70
2019-03-13T20:45:22.455Z,72.20
2019-03-13T20:47:51.847Z,72.40
2019-03-13T20:50:35.265Z,73.00
2019-03-13T20:52:52.908Z,74.00
2019-03-13T20:55:22.299Z,75.50
2019-03-13T20:57:52.068Z,76.40
2019-03-13T21:00:25.272Z,77.40
2019-03-13T21:02:55.083Z,78.60
2019-03-13T21:05:24.663Z,78.30
2019-03-13T21:07:54.148Z,79.00
2019-03-13T21:10:23.858Z,79.30
2019-03-13T21:12:53.342Z,79.80
2019-03-13T21:15:22.899Z,80.20
2019-03-13T21:17:52.336Z,80.50
2019-03-13T21:20:22.272Z,80.50
2019-03-13T21:22:51.678Z,80.80
2019-03-13T21:25:21.107Z,80.60
2019-03-13T21:27:50.491Z,80.90
2019-03-13T21:30:23.679Z,81.00
2019-03-13T21:32:53.080Z,81.00
2019-03-13T21:35:22.604Z,81.00
2019-03-13T21:37:52.073Z,80.80
2019-03-13T21:40:21.620Z,80.90
2019-03-13T21:42:54.128Z,80.80
2019-03-13T21:45:23.161Z,80.60
2019-03-13T21:47:52.800Z,80.60
2019-03-13T21:50:22.534Z,80.70
2019-03-13T21:52:52.206Z,80.60
2019-03-13T21:55:21.580Z,80.70
2019-03-13T21:57:52.189Z,80.70
2019-03-13T22:00:22.824Z,80.90
2019-03-13T22:02:52.266Z,81.20
2019-03-13T22:05:26.282Z,81.30
2019-03-13T22:07:53.323Z,81.60
2019-03-13T22:10:22.811Z,82.00
2019-03-13T22:12:52.430Z,82.10
2019-03-13T22:15:21.812Z,82.10
2019-03-13T22:17:51.211Z,82.10
2019-03-13T22:20:20.751Z,82.20
2019-03-13T22:22:52.236Z,82.50
2019-03-13T22:25:21.598Z,82.20
2019-03-13T22:27:51.001Z,81.90
2019-03-13T22:30:21.158Z,81.60
2019-03-13T22:32:50.619Z,81.50
2019-03-13T22:35:19.964Z,81.40
2019-03-13T22:37:49.401Z,81.50
2019-03-13T22:40:18.745Z,81.70
2019-03-13T22:42:48.396Z,81.90
2019-03-13T22:45:17.824Z,82.00
2019-03-13T22:47:47.210Z,82.00
2019-03-13T22:50:17.420Z,82.00
2019-03-13T22:52:46.815Z,82.30
2019-03-13T22:55:18.729Z,82.80
2019-03-13T22:57:48.117Z,82.80
2019-03-13T23:01:09.244Z,82.80
2019-03-13T23:03:40.543Z,82.80
2019-03-13T23:06:09.795Z,82.80
2019-03-13T23:08:39.184Z,83.00
2019-03-13T23:11:08.845Z,82.80
2019-03-13T23:13:38.259Z,82.60
2019-03-13T23:16:07.598Z,82.50
2019-03-13T23:18:36.996Z,82.60
2019-03-13T23:21:06.457Z,82.50
2019-03-13T23:23:35.856Z,82.90
2019-03-13T23:26:05.316Z,83.00
2019-03-13T23:28:34.686Z,83.20
2019-03-13T23:31:04.083Z,83.60
2019-03-13T23:33:33.451Z,83.80
2019-03-13T23:36:02.864Z,84.40
2019-03-13T23:38:32.240Z,85.00
2019-03-13T23:41:01.624Z,85.40
2019-03-13T23:43:31.023Z,86.10
2019-03-13T23:46:00.407Z,86.50
2019-03-13T23:48:29.825Z,87.00
2019-03-13T23:50:59.207Z,86.90
2019-03-13T23:53:28.604Z,87.40
2019-03-13T23:55:57.982Z,87.50
2019-03-13T23:58:27.631Z,87.40
